Time;durP1;ratioP1;P1;durP2;ratioP2;P2;SDS_P1;SDS_P2;PMS_P1;PMS_P2;Temp;Humidity;BMP_temperature;BMP_pressure;BME280_temperature;BME280_humidity;BME280_pressure;Samples;Min_cycle;Max_cycle;Signal;HPM_P1;HPM_P2
2021/12/16 00:05:10;;;;;;;554.83;46.20;;;4.20;99.90;;;;;;4354954;28;656993;-73
2021/12/16 00:07:57;;;;;;;732.40;55.97;;;4.20;99.90;;;;;;4354791;28;656780;-73
2021/12/16 00:10:52;;;;;;;676.83;50.90;;;4.20;99.90;;;;;;4355061;28;656955;-73
2021/12/16 00:32:47;;;;;;;288.13;43.13;;;4.30;99.90;;;;;;4246357;28;656477;-74
2021/12/16 00:35:36;;;;;;;333.83;43.53;;;4.30;99.90;;;;;;4256899;28;656481;-74
2021/12/16 00:38:24;;;;;;;209.50;45.03;;;4.30;99.90;;;;;;4270136;28;656863;-73
2021/12/16 00:41:12;;;;;;;240.35;47.28;;;4.30;99.90;;;;;;4274497;28;656809;-73
2021/12/16 00:44:06;;;;;;;315.83;46.40;;;4.30;99.90;;;;;;4280490;28;656050;-75
2021/12/16 00:47:01;;;;;;;266.77;42.53;;;4.30;99.90;;;;;;4270481;28;656646;-75
2021/12/16 00:49:51;;;;;;;436.90;50.73;;;4.30;99.90;;;;;;4270022;28;657260;-75
2021/12/16 00:55:53;;;;;;;177.90;45.47;;;4.30;99.90;;;;;;4254997;28;656948;-73
2021/12/16 00:58:46;;;;;;;308.87;47.50;;;4.30;99.90;;;;;;4305025;28;656511;-73
2021/12/16 01:01:41;;;;;;;199.90;46.88;;;4.30;99.90;;;;;;4318957;28;657056;-73
2021/12/16 01:05:01;;;;;;;291.13;45.10;;;4.30;99.90;;;;;;4357395;28;656861;-75
2021/12/16 01:35:57;;;;;;;461.17;48.17;;;4.30;99.90;;;;;;4349441;28;658132;-74
2021/12/16 01:39:18;;;;;;;589.77;52.30;;;4.30;99.90;;;;;;4393868;28;657774;-74
2021/12/16 01:42:29;;;;;;;452.57;42.20;;;4.30;99.90;;;;;;4371045;28;658067;-75
2021/12/16 01:45:44;;;;;;;376.07;46.40;;;4.30;99.90;;;;;;4392673;28;657351;-74
2021/12/16 01:52:01;;;;;;;484.07;44.70;;;4.20;99.90;;;;;;4328036;28;657680;-72
2021/12/16 01:55:05;;;;;;;710.93;54.67;;;4.20;99.90;;;;;;4330792;28;658148;-73
2021/12/16 01:57:56;;;;;;;638.13;48.60;;;4.30;99.90;;;;;;4309709;28;657764;-73
2021/12/16 02:00:56;;;;;;;588.73;50.53;;;4.30;99.90;;;;;;4327454;28;657422;-72
2021/12/16 02:03:48;;;;;;;736.27;53.00;;;4.30;99.90;;;;;;4329828;28;657940;-73
2021/12/16 02:06:48;;;;;;;509.37;45.90;;;4.20;99.90;;;;;;4311191;28;657311;-72
2021/12/16 02:09:39;;;;;;;732.77;51.27;;;4.20;99.90;;;;;;4311957;28;657613;-73
2021/12/16 02:12:55;;;;;;;726.20;51.63;;;4.30;99.90;;;;;;4317515;28;657822;-74
2021/12/16 02:31:25;;;;;;;645.80;47.40;;;4.20;99.90;;;;;;4263653;28;657978;-72
2021/12/16 02:34:29;;;;;;;635.70;43.13;;;4.30;99.90;;;;;;4295428;28;657863;-74
2021/12/16 02:37:21;;;;;;;533.60;45.77;;;4.20;99.90;;;;;;4311468;28;657870;-73
2021/12/16 02:40:10;;;;;;;578.77;45.67;;;4.20;99.90;;;;;;4316596;28;657686;-73
2021/12/16 02:43:02;;;;;;;639.43;47.63;;;4.20;99.90;;;;;;4316076;28;659093;-73
2021/12/16 02:48:55;;;;;;;579.17;46.70;;;4.30;99.90;;;;;;4315360;28;657822;-73
2021/12/16 02:51:42;;;;;;;739.60;50.53;;;4.30;99.90;;;;;;4306041;28;658364;-73
2021/12/16 02:54:32;;;;;;;677.53;47.40;;;4.30;99.90;;;;;;4327722;28;658158;-73
2021/12/16 02:57:20;;;;;;;535.67;43.47;;;4.30;99.90;;;;;;4335216;28;658061;-73
2021/12/16 03:00:12;;;;;;;581.10;44.97;;;4.40;99.90;;;;;;4320737;28;657863;-75
2021/12/16 03:02:59;;;;;;;746.00;53.83;;;4.30;99.90;;;;;;4336908;28;658535;-74
2021/12/16 03:05:47;;;;;;;862.30;57.90;;;4.30;99.90;;;;;;4346777;28;658089;-73
2021/12/16 03:08:35;;;;;;;735.70;51.97;;;4.30;99.90;;;;;;4365440;28;657676;-73
2021/12/16 03:11:32;;;;;;;618.50;46.27;;;4.30;99.90;;;;;;4373688;28;658113;-73
2021/12/16 03:14:32;;;;;;;437.00;42.27;;;4.30;99.90;;;;;;4379709;28;657393;-74
2021/12/16 03:17:26;;;;;;;653.00;46.90;;;4.30;99.90;;;;;;4391439;28;658380;-74
2021/12/16 03:20:19;;;;;;;786.33;52.17;;;4.30;99.90;;;;;;4391293;28;657985;-74
2021/12/16 03:23:24;;;;;;;745.47;52.27;;;4.40;99.90;;;;;;4368620;28;657882;-74
2021/12/16 03:30:04;;;;;;;598.73;46.57;;;4.30;99.90;;;;;;4331590;28;658790;-74
2021/12/16 03:33:18;;;;;;;722.10;51.67;;;4.30;99.90;;;;;;4338070;28;657675;-74
2021/12/16 03:36:08;;;;;;;682.50;52.37;;;4.40;99.90;;;;;;4326752;28;657933;-73
2021/12/16 03:38:58;;;;;;;723.90;52.77;;;4.30;99.90;;;;;;4332530;28;657639;-74
2021/12/16 03:41:46;;;;;;;649.58;50.00;;;4.30;99.90;;;;;;4335607;28;657993;-73
2021/12/16 03:44:49;;;;;;;671.13;54.87;;;4.40;99.90;;;;;;4349862;28;658526;-73
2021/12/16 03:47:40;;;;;;;691.33;54.63;;;4.30;99.90;;;;;;4326223;28;657870;-73
2021/12/16 03:50:27;;;;;;;678.87;51.40;;;4.30;99.90;;;;;;4329288;28;659131;-74
2021/12/16 03:53:16;;;;;;;776.07;59.20;;;4.30;99.90;;;;;;4354208;28;657500;-73
2021/12/16 03:56:05;;;;;;;569.47;49.73;;;4.30;99.90;;;;;;4332246;28;658465;-74
2021/12/16 03:58:52;;;;;;;831.33;57.17;;;4.30;99.90;;;;;;4337945;28;658099;-73
2021/12/16 04:01:42;;;;;;;703.27;55.37;;;4.30;99.90;;;;;;4356859;28;657592;-73
2021/12/16 04:04:30;;;;;;;687.93;53.33;;;4.30;99.90;;;;;;4371032;28;657921;-73
2021/12/16 04:07:18;;;;;;;657.77;52.97;;;4.30;99.90;;;;;;4346105;28;658485;-73
2021/12/16 04:10:07;;;;;;;616.67;53.40;;;4.30;99.90;;;;;;4401204;28;657527;-72
2021/12/16 04:12:56;;;;;;;691.50;55.20;;;4.30;99.90;;;;;;4416273;28;657484;-74
2021/12/16 04:15:44;;;;;;;652.83;51.67;;;4.30;99.90;;;;;;4410323;28;658119;-74
2021/12/16 04:18:33;;;;;;;579.28;50.92;;;4.40;99.90;;;;;;4389275;28;657695;-75
2021/12/16 04:21:21;;;;;;;660.50;51.50;;;4.40;99.90;;;;;;4398665;28;658752;-74
2021/12/16 04:24:09;;;;;;;493.60;45.03;;;4.40;99.90;;;;;;4414503;28;657855;-72
2021/12/16 04:26:57;;;;;;;471.67;43.07;;;4.40;99.90;;;;;;4390955;28;657383;-73
2021/12/16 04:29:45;;;;;;;490.43;45.60;;;4.40;99.90;;;;;;4410970;28;657384;-72
2021/12/16 04:32:32;;;;;;;577.53;44.87;;;4.40;99.90;;;;;;4390927;28;658057;-74
2021/12/16 04:35:22;;;;;;;635.83;51.00;;;4.40;99.90;;;;;;4414935;28;658179;-74
2021/12/16 04:38:14;;;;;;;540.55;45.45;;;4.40;99.90;;;;;;4431683;28;657850;-74
2021/12/16 04:41:02;;;;;;;842.83;54.37;;;4.40;99.90;;;;;;4408215;28;658684;-72
2021/12/16 04:43:51;;;;;;;676.03;49.90;;;4.40;99.90;;;;;;4430561;28;657636;-74
2021/12/16 04:46:38;;;;;;;768.90;50.10;;;4.40;99.90;;;;;;4411997;28;658385;-74
2021/12/16 04:49:26;;;;;;;611.10;45.00;;;4.40;99.90;;;;;;4419329;28;658036;-73
2021/12/16 04:52:17;;;;;;;658.03;47.65;;;4.40;99.90;;;;;;4431508;28;658061;-73
2021/12/16 04:55:05;;;;;;;817.97;54.83;;;4.40;99.90;;;;;;4408097;28;657603;-73
2021/12/16 04:57:53;;;;;;;601.00;42.97;;;4.40;99.90;;;;;;4410875;28;658000;-73
2021/12/16 05:00:41;;;;;;;705.93;46.67;;;4.40;99.90;;;;;;4417961;28;657244;-74
2021/12/16 05:03:29;;;;;;;808.15;51.53;;;4.40;99.90;;;;;;4429796;28;657731;-74
2021/12/16 05:06:16;;;;;;;854.40;52.23;;;4.50;99.90;;;;;;4412264;28;657803;-74
2021/12/16 05:09:07;;;;;;;668.37;45.67;;;4.50;99.90;;;;;;4439340;28;658375;-73
2021/12/16 05:11:54;;;;;;;862.33;50.37;;;4.40;99.90;;;;;;4413377;28;657616;-73
2021/12/16 05:14:42;;;;;;;496.47;41.10;;;4.40;99.90;;;;;;4418907;28;659169;-73
2021/12/16 05:17:35;;;;;;;708.83;47.83;;;4.40;99.90;;;;;;4439123;28;656973;-73
2021/12/16 05:20:25;;;;;;;639.03;47.23;;;4.40;99.90;;;;;;4422409;28;657596;-73
2021/12/16 05:26:21;;;;;;;569.77;42.97;;;4.40;99.90;;;;;;4417516;28;658490;-73
2021/12/16 05:29:09;;;;;;;702.40;48.13;;;4.40;99.90;;;;;;4418625;28;658945;-72
2021/12/16 05:31:57;;;;;;;732.30;49.97;;;4.40;99.90;;;;;;4408116;28;657808;-73
2021/12/16 05:34:45;;;;;;;758.17;48.38;;;4.40;99.90;;;;;;4443412;28;657109;-73
2021/12/16 05:37:32;;;;;;;695.17;45.27;;;4.40;99.90;;;;;;4407394;28;658790;-73
2021/12/16 05:40:24;;;;;;;627.63;44.13;;;4.50;99.90;;;;;;4428872;28;657458;-73
2021/12/16 05:43:15;;;;;;;782.10;49.10;;;4.40;99.90;;;;;;4411278;28;658113;-73
2021/12/16 05:46:03;;;;;;;809.15;53.53;;;4.40;99.90;;;;;;4412099;28;658106;-73
2021/12/16 05:48:54;;;;;;;602.15;45.17;;;4.40;99.90;;;;;;4409684;28;657672;-73
2021/12/16 05:51:49;;;;;;;690.90;47.15;;;4.40;99.90;;;;;;4409547;28;657570;-73
2021/12/16 05:54:41;;;;;;;701.17;48.23;;;4.40;99.90;;;;;;4413798;28;658200;-73
2021/12/16 05:57:34;;;;;;;950.33;56.17;;;4.50;99.90;;;;;;4415074;28;659383;-74
2021/12/16 06:00:28;;;;;;;715.67;49.70;;;4.50;99.90;;;;;;4418431;28;657500;-73
2021/12/16 06:03:21;;;;;;;726.27;49.33;;;4.50;99.90;;;;;;4400790;28;658374;-73
2021/12/16 06:06:13;;;;;;;981.93;57.50;;;4.50;99.90;;;;;;4407298;28;658434;-73
2021/12/16 06:09:05;;;;;;;842.00;52.87;;;4.50;99.90;;;;;;4393729;28;657547;-73
2021/12/16 06:11:59;;;;;;;706.83;51.77;;;4.50;99.90;;;;;;4384202;28;658998;-74
2021/12/16 06:15:03;;;;;;;674.38;50.40;;;4.50;99.90;;;;;;4392093;28;658432;-74
2021/12/16 06:27:16;;;;;;;963.20;61.37;;;4.50;99.90;;;;;;4412053;28;657889;-73
2021/12/16 06:30:05;;;;;;;542.97;49.63;;;4.50;99.90;;;;;;4419362;28;657613;-74
2021/12/16 06:32:54;;;;;;;778.93;56.17;;;4.50;99.90;;;;;;4414571;28;658841;-74
2021/12/16 06:35:42;;;;;;;784.10;56.90;;;4.50;99.90;;;;;;4416617;28;657517;-74
2021/12/16 06:38:29;;;;;;;788.07;59.20;;;4.50;99.90;;;;;;4444398;28;656955;-74
2021/12/16 06:41:17;;;;;;;773.20;60.90;;;4.50;99.90;;;;;;4415153;28;658119;-74
2021/12/16 06:44:10;;;;;;;664.70;53.70;;;4.50;99.90;;;;;;4437131;28;657554;-74
2021/12/16 06:47:02;;;;;;;821.77;58.23;;;4.50;99.90;;;;;;4395733;28;657840;-73
2021/12/16 06:49:54;;;;;;;584.80;50.70;;;4.60;99.90;;;;;;4411314;28;657335;-74
2021/12/16 06:52:47;;;;;;;743.73;58.07;;;4.50;99.90;;;;;;4389679;28;658786;-74
2021/12/16 06:55:40;;;;;;;857.80;59.33;;;4.50;99.90;;;;;;4413739;28;658884;-74
2021/12/16 06:58:36;;;;;;;764.20;58.40;;;4.50;99.90;;;;;;4411617;28;658495;-74
2021/12/16 07:01:36;;;;;;;936.73;61.53;;;4.50;99.90;;;;;;4408744;28;657953;-74
2021/12/16 07:04:24;;;;;;;831.63;58.80;;;4.50;99.90;;;;;;4415029;28;657772;-74
2021/12/16 07:07:19;;;;;;;738.07;54.07;;;4.50;99.90;;;;;;4411674;28;658959;-74
2021/12/16 07:10:47;;;;;;;843.67;58.27;;;4.50;99.90;;;;;;4412564;28;658909;-74
2021/12/16 07:13:40;;;;;;;621.80;50.63;;;4.50;99.90;;;;;;4407556;28;658167;-74
2021/12/16 07:16:29;;;;;;;669.37;50.83;;;4.40;99.90;;;;;;4414286;28;657613;-73
2021/12/16 07:19:17;;;;;;;878.60;60.53;;;4.40;99.90;;;;;;4429267;28;657822;-74
2021/12/16 07:22:05;;;;;;;776.00;55.03;;;4.40;99.90;;;;;;4438830;28;657438;-75
2021/12/16 07:24:54;;;;;;;817.20;57.60;;;4.40;99.90;;;;;;4407496;28;658749;-74
2021/12/16 07:27:42;;;;;;;808.13;55.53;;;4.40;99.90;;;;;;4414142;28;657920;-73
2021/12/16 07:30:31;;;;;;;877.07;56.60;;;4.40;99.90;;;;;;4426982;28;657626;-73
2021/12/16 07:33:18;;;;;;;573.87;46.23;;;4.30;99.90;;;;;;4439864;28;658444;-73
2021/12/16 07:36:06;;;;;;;667.33;50.37;;;4.30;99.90;;;;;;4428729;28;657961;-73
2021/12/16 07:38:54;;;;;;;633.60;48.30;;;4.30;99.90;;;;;;4448369;28;657462;-74
2021/12/16 07:41:47;;;;;;;656.50;49.23;;;4.30;99.90;;;;;;4424055;28;657385;-74
2021/12/16 07:44:34;;;;;;;697.53;51.27;;;4.30;99.90;;;;;;4410284;28;657527;-74
2021/12/16 07:47:22;;;;;;;525.33;48.47;;;4.30;99.90;;;;;;4410897;28;657818;-75
2021/12/16 07:50:11;;;;;;;535.90;50.33;;;4.30;99.90;;;;;;4433684;28;657878;-75
2021/12/16 07:52:59;;;;;;;727.30;58.73;;;4.40;99.90;;;;;;4448730;28;659180;-75
2021/12/16 07:55:47;;;;;;;522.23;48.77;;;4.40;99.90;;;;;;4429234;28;658398;-74
2021/12/16 07:58:37;;;;;;;337.90;47.60;;;4.40;99.90;;;;;;4448260;28;657406;-73
2021/12/16 08:01:26;;;;;;;547.87;53.50;;;4.40;99.90;;;;;;4443060;28;658055;-74
2021/12/16 08:04:20;;;;;;;173.23;35.10;;;4.30;99.90;;;;;;4424076;28;658612;-74
2021/12/16 08:07:08;;;;;;;212.77;46.17;;;4.40;99.90;;;;;;4400888;28;658311;-75
2021/12/16 08:13:40;;;;;;;134.07;41.83;;;4.40;99.90;;;;;;4385025;28;657910;-74
2021/12/16 08:16:27;;;;;;;114.93;39.17;;;4.40;99.90;;;;;;4408307;28;658473;-73
2021/12/16 08:19:15;;;;;;;110.37;40.37;;;4.40;99.90;;;;;;4429070;28;657986;-74
2021/12/16 08:22:04;;;;;;;121.43;44.20;;;4.50;99.90;;;;;;4406474;28;658318;-74
2021/12/16 08:24:51;;;;;;;120.37;44.90;;;4.50;99.90;;;;;;4410345;28;657360;-74
2021/12/16 08:27:39;;;;;;;118.87;42.17;;;4.50;99.90;;;;;;4428905;28;658038;-75
2021/12/16 08:30:30;;;;;;;105.07;42.67;;;4.50;99.90;;;;;;4426519;28;658027;-74
2021/12/16 08:33:17;;;;;;;110.40;41.70;;;4.50;99.90;;;;;;4420322;28;659136;-74
2021/12/16 08:36:06;;;;;;;95.37;37.47;;;4.50;99.90;;;;;;4424544;28;657893;-73
2021/12/16 08:38:54;;;;;;;123.23;45.03;;;4.50;99.90;;;;;;4429622;28;656841;-74
2021/12/16 08:41:45;;;;;;;128.18;46.53;;;4.50;99.90;;;;;;4418030;28;657773;-74
2021/12/16 08:44:33;;;;;;;123.97;43.00;;;4.50;99.90;;;;;;4410420;28;658499;-73
2021/12/16 08:47:23;;;;;;;128.60;46.67;;;4.50;99.90;;;;;;4409791;28;657495;-73
2021/12/16 08:50:11;;;;;;;125.07;45.70;;;4.50;99.90;;;;;;4409642;28;657382;-74
2021/12/16 08:53:00;;;;;;;113.10;45.67;;;4.50;99.90;;;;;;4428256;28;657337;-74
2021/12/16 08:55:48;;;;;;;126.35;47.75;;;4.60;99.90;;;;;;4409837;28;658174;-74
2021/12/16 08:58:37;;;;;;;122.40;44.72;;;4.60;99.90;;;;;;4409249;28;657932;-73
2021/12/16 09:01:27;;;;;;;122.00;45.73;;;4.60;99.90;;;;;;4431634;28;658153;-73
2021/12/16 09:04:22;;;;;;;119.37;44.37;;;4.60;99.90;;;;;;4423530;28;657883;-73
2021/12/16 09:07:11;;;;;;;132.23;47.50;;;4.60;99.90;;;;;;4437500;28;657609;-74
2021/12/16 09:09:59;;;;;;;122.53;45.43;;;4.70;99.90;;;;;;4433438;28;657773;-74
2021/12/16 09:12:53;;;;;;;114.03;45.97;;;4.70;99.90;;;;;;4412171;28;657735;-74
2021/12/16 09:15:44;;;;;;;124.93;48.53;;;4.80;99.90;;;;;;4396335;28;658475;-74
2021/12/16 09:18:32;;;;;;;117.17;47.47;;;4.80;99.90;;;;;;4425923;28;658397;-76
2021/12/16 09:21:24;;;;;;;112.37;45.97;;;4.80;99.90;;;;;;4427835;28;657842;-74
2021/12/16 09:24:14;;;;;;;116.50;42.83;;;4.80;99.90;;;;;;4412711;28;657567;-75
2021/12/16 09:27:02;;;;;;;117.47;47.60;;;4.90;99.90;;;;;;4414438;28;657696;-75
2021/12/16 09:29:50;;;;;;;123.77;48.17;;;4.90;99.90;;;;;;4429209;28;657704;-73
2021/12/16 09:32:37;;;;;;;125.77;49.70;;;4.90;99.90;;;;;;4419719;28;658603;-74
2021/12/16 09:35:26;;;;;;;114.17;46.73;;;4.90;99.90;;;;;;4435892;28;658027;-74
2021/12/16 09:38:15;;;;;;;116.67;48.27;;;4.90;99.90;;;;;;4429081;28;657988;-74
2021/12/16 09:41:04;;;;;;;110.53;44.33;;;5.00;99.90;;;;;;4416689;28;658411;-74
2021/12/16 09:43:53;;;;;;;109.88;44.42;;;5.00;99.90;;;;;;4412989;28;657640;-74
2021/12/16 09:46:43;;;;;;;112.63;44.10;;;4.90;99.90;;;;;;4431332;28;657904;-74
2021/12/16 09:49:31;;;;;;;105.97;43.63;;;5.00;99.90;;;;;;4422301;28;658130;-74
2021/12/16 09:52:19;;;;;;;121.63;48.58;;;5.00;99.90;;;;;;4427203;28;658607;-74
2021/12/16 09:55:08;;;;;;;107.50;45.60;;;5.00;99.90;;;;;;4407083;28;657350;-74
2021/12/16 09:57:56;;;;;;;106.07;43.60;;;5.00;99.90;;;;;;4408207;28;657647;-73
2021/12/16 10:00:44;;;;;;;109.00;45.23;;;5.00;99.90;;;;;;4430253;28;657795;-74
2021/12/16 10:03:31;;;;;;;114.33;47.27;;;5.00;99.90;;;;;;4421209;28;657956;-74
2021/12/16 10:06:19;;;;;;;105.03;45.10;;;5.00;99.90;;;;;;4434149;28;657475;-75
2021/12/16 10:09:08;;;;;;;110.40;46.30;;;5.10;99.90;;;;;;4419666;28;657957;-74
2021/12/16 10:12:01;;;;;;;118.90;46.63;;;5.00;99.90;;;;;;4415184;28;657973;-74
2021/12/16 10:17:22;;;;;;;124.30;49.50;;;5.00;99.90;;;;;;4410619;28;658581;-75
2021/12/16 10:18:16;;;;;;;118.93;47.37;;;5.10;99.90;;;;;;4419859;28;658140;-74
2021/12/16 10:21:05;;;;;;;111.80;47.83;;;5.10;99.90;;;;;;4437842;28;658552;-74
2021/12/16 10:23:53;;;;;;;118.43;48.40;;;5.10;99.90;;;;;;4412547;28;658404;-74
2021/12/16 10:26:41;;;;;;;129.73;50.92;;;5.10;99.90;;;;;;4410640;28;658842;-74
2021/12/16 10:29:36;;;;;;;137.00;51.10;;;5.10;99.90;;;;;;4439873;28;658553;-76
2021/12/16 10:32:40;;;;;;;127.07;53.83;;;5.10;99.90;;;;;;4418254;28;658199;-74
2021/12/16 10:35:29;;;;;;;125.87;50.83;;;5.20;99.90;;;;;;4410594;28;659000;-73
2021/12/16 10:38:18;;;;;;;118.70;49.90;;;5.20;99.90;;;;;;4416392;28;657612;-73
2021/12/16 10:41:06;;;;;;;114.73;46.53;;;5.10;99.90;;;;;;4419974;28;657588;-74
2021/12/16 10:43:55;;;;;;;129.13;51.07;;;5.10;99.90;;;;;;4431480;28;658180;-73
2021/12/16 10:46:46;;;;;;;108.87;45.97;;;5.20;99.90;;;;;;4416744;28;658557;-73
2021/12/16 10:49:35;;;;;;;112.53;44.72;;;5.20;99.90;;;;;;4415567;28;657840;-73
2021/12/16 10:52:27;;;;;;;98.40;41.97;;;5.20;99.90;;;;;;4419523;28;659148;-73
2021/12/16 10:55:14;;;;;;;103.37;44.07;;;5.10;99.90;;;;;;4412131;28;657151;-74
2021/12/16 10:58:03;;;;;;;102.27;43.23;;;5.10;99.90;;;;;;4418058;28;657974;-75
2021/12/16 11:00:51;;;;;;;91.70;40.97;;;5.20;99.90;;;;;;4415564;28;657749;-74
2021/12/16 11:03:46;;;;;;;88.03;39.07;;;5.20;99.90;;;;;;4436125;28;657928;-73
2021/12/16 11:06:36;;;;;;;94.83;40.43;;;5.20;99.90;;;;;;4416490;28;659042;-74
2021/12/16 11:09:50;;;;;;;64.03;27.27;;;5.20;99.90;;;;;;4413050;28;657688;-72
2021/12/16 11:12:48;;;;;;;87.47;38.33;;;5.20;99.90;;;;;;4392423;28;657229;-72
2021/12/16 11:15:37;;;;;;;91.60;38.53;;;5.30;99.90;;;;;;4395490;28;657194;-73
2021/12/16 11:18:25;;;;;;;94.00;38.53;;;5.20;99.90;;;;;;4440314;28;656441;-73
2021/12/16 11:21:15;;;;;;;90.77;37.40;;;5.30;99.90;;;;;;4410562;28;657722;-72
2021/12/16 11:24:21;;;;;;;92.23;37.37;;;5.30;99.90;;;;;;4414804;28;657869;-73
2021/12/16 11:27:31;;;;;;;82.97;36.47;;;5.30;99.90;;;;;;4407869;28;657358;-73
2021/12/16 11:30:28;;;;;;;83.97;35.50;;;5.30;99.90;;;;;;4415519;28;656881;-73
2021/12/16 11:33:22;;;;;;;88.07;36.33;;;5.40;99.90;;;;;;4390226;28;656673;-73
2021/12/16 11:36:11;;;;;;;89.37;38.00;;;5.40;99.90;;;;;;4428051;28;656540;-75
2021/12/16 11:39:03;;;;;;;99.57;39.37;;;5.40;99.90;;;;;;4426346;28;657108;-72
2021/12/16 11:41:51;;;;;;;80.10;36.27;;;5.40;99.90;;;;;;4407672;28;656369;-74
2021/12/16 11:44:40;;;;;;;83.37;36.03;;;5.40;99.90;;;;;;4444552;28;656450;-73
2021/12/16 11:47:28;;;;;;;85.85;36.42;;;5.50;99.90;;;;;;4425805;28;657190;-72
2021/12/16 11:50:16;;;;;;;80.17;32.10;;;5.50;99.90;;;;;;4418868;28;656363;-73
2021/12/16 11:53:04;;;;;;;74.37;33.40;;;5.50;99.90;;;;;;4438288;28;657545;-73
2021/12/16 11:55:54;;;;;;;75.50;32.73;;;5.50;99.90;;;;;;4411068;28;657744;-73
2021/12/16 11:58:43;;;;;;;69.40;31.93;;;5.60;99.90;;;;;;4412530;28;656803;-73
2021/12/16 12:01:31;;;;;;;73.03;31.03;;;5.60;99.90;;;;;;4425075;28;656575;-73
2021/12/16 12:04:18;;;;;;;68.87;29.77;;;5.60;99.90;;;;;;4435957;28;658044;-74
2021/12/16 12:07:11;;;;;;;59.13;27.77;;;5.60;99.90;;;;;;4410516;28;656683;-73
2021/12/16 12:09:59;;;;;;;68.77;29.40;;;5.70;99.90;;;;;;4411205;28;657053;-73
2021/12/16 12:12:49;;;;;;;63.13;29.58;;;5.70;99.90;;;;;;4422818;28;656867;-74
2021/12/16 12:15:51;;;;;;;64.93;28.47;;;5.60;99.90;;;;;;4414862;28;657391;-73
2021/12/16 12:18:41;;;;;;;41.27;18.60;;;5.70;99.90;;;;;;4419051;28;657403;-73
2021/12/16 12:21:34;;;;;;;67.83;31.80;;;5.60;99.90;;;;;;4418340;28;656925;-73
2021/12/16 12:24:24;;;;;;;57.97;26.77;;;5.60;99.90;;;;;;4422747;28;656735;-73
2021/12/16 12:27:13;;;;;;;61.53;27.87;;;5.70;99.90;;;;;;4412481;28;656746;-73
2021/12/16 12:30:04;;;;;;;60.83;28.53;;;5.70;99.90;;;;;;4418535;28;657058;-73
2021/12/16 12:32:52;;;;;;;55.33;27.00;;;5.70;99.90;;;;;;4416670;28;656224;-73
2021/12/16 12:35:39;;;;;;;55.23;24.67;;;5.70;99.90;;;;;;4429670;28;656389;-75
2021/12/16 12:38:27;;;;;;;58.60;26.33;;;5.70;99.90;;;;;;4410795;28;657691;-73
2021/12/16 12:41:15;;;;;;;56.47;26.80;;;5.80;99.90;;;;;;4434586;28;656723;-73
2021/12/16 12:44:04;;;;;;;52.30;25.87;;;5.70;99.90;;;;;;4415685;28;657119;-75
2021/12/16 12:46:54;;;;;;;56.87;27.33;;;5.80;99.90;;;;;;4407147;28;657628;-74
2021/12/16 12:49:42;;;;;;;57.87;26.47;;;5.80;99.90;;;;;;4410662;28;656593;-74
2021/12/16 12:52:32;;;;;;;54.53;27.77;;;5.80;99.90;;;;;;4432020;28;656117;-74
2021/12/16 12:55:21;;;;;;;56.97;27.10;;;5.80;99.90;;;;;;4406919;28;657679;-75
2021/12/16 12:58:10;;;;;;;52.33;25.33;;;5.80;99.90;;;;;;4407169;28;657159;-74
2021/12/16 13:01:00;;;;;;;44.43;21.37;;;5.80;99.90;;;;;;4404090;28;657146;-74
2021/12/16 13:03:49;;;;;;;53.03;23.83;;;5.80;99.90;;;;;;4409768;28;657564;-75
2021/12/16 13:06:51;;;;;;;55.80;26.87;;;5.70;99.90;;;;;;4412584;28;656305;-73
2021/12/16 13:09:41;;;;;;;61.67;28.70;;;5.70;99.90;;;;;;4398625;28;657940;-74
2021/12/16 13:12:36;;;;;;;55.57;26.37;;;5.70;99.90;;;;;;4418600;28;657688;-75
2021/12/16 13:15:35;;;;;;;63.47;27.90;;;5.70;99.90;;;;;;4409474;28;656359;-74
2021/12/16 13:27:41;;;;;;;61.27;29.63;;;5.70;99.90;;;;;;4899860;27;131146;-75
2021/12/16 13:30:32;;;;;;;61.23;27.50;;;5.80;99.90;;;;;;4394842;28;651184;-74
2021/12/16 13:33:23;;;;;;;60.77;25.53;;;5.80;99.90;;;;;;4427263;28;651406;-74
2021/12/16 13:36:18;;;;;;;55.10;24.97;;;5.80;99.90;;;;;;4398400;28;651557;-75
2021/12/16 13:39:08;;;;;;;52.13;22.80;;;5.70;99.90;;;;;;4409943;28;651305;-74
2021/12/16 13:41:58;;;;;;;49.03;23.13;;;5.70;99.90;;;;;;4424221;28;651176;-74
2021/12/16 13:45:03;;;;;;;54.23;27.03;;;5.70;99.90;;;;;;4427622;28;652555;-74
2021/12/16 13:48:25;;;;;;;46.90;23.60;;;5.70;99.90;;;;;;4408965;28;652710;-75
2021/12/16 14:03:51;;;;;;;52.13;23.73;;;5.70;99.90;;;;;;4407688;28;653367;-74
2021/12/16 14:06:53;;;;;;;51.60;26.97;;;5.70;99.90;;;;;;4425589;28;653801;-74
2021/12/16 14:09:54;;;;;;;53.57;25.27;;;5.70;99.90;;;;;;4398624;28;653997;-74
2021/12/16 14:16:13;;;;;;;51.93;26.10;;;5.80;99.90;;;;;;4406699;28;653587;-75
2021/12/16 14:25:29;;;;;;;62.10;26.70;;;5.80;99.90;;;;;;4390987;28;654044;-74
2021/12/16 14:31:57;;;;;;;53.47;23.73;;;5.80;99.90;;;;;;4384681;28;654015;-75
2021/12/16 14:35:00;;;;;;;45.40;21.63;;;5.80;99.90;;;;;;4384480;28;654017;-74
2021/12/16 14:38:05;;;;;;;60.63;25.97;;;5.80;99.90;;;;;;4378610;28;654067;-74
2021/12/16 14:41:06;;;;;;;63.17;26.37;;;5.80;99.90;;;;;;4373497;28;653726;-74
2021/12/16 14:44:19;;;;;;;58.60;23.60;;;5.80;99.90;;;;;;4398836;28;655361;-75
2021/12/16 14:47:36;;;;;;;52.27;25.10;;;5.80;99.90;;;;;;4383862;28;653903;-74
2021/12/16 14:50:27;;;;;;;60.20;24.67;;;5.90;99.90;;;;;;4406601;28;653274;-73
2021/12/16 14:53:21;;;;;;;59.97;25.07;;;5.90;99.90;;;;;;4397248;28;654714;-74
2021/12/16 14:56:11;;;;;;;48.07;22.00;;;5.80;99.90;;;;;;4399047;28;653647;-75
2021/12/16 14:59:00;;;;;;;35.07;15.17;;;5.90;99.90;;;;;;4406599;28;654153;-75
2021/12/16 15:01:49;;;;;;;45.50;22.33;;;5.90;99.90;;;;;;4409944;28;653938;-74
2021/12/16 15:04:38;;;;;;;43.37;22.53;;;5.90;99.90;;;;;;4412683;28;653366;-74
2021/12/16 15:07:27;;;;;;;40.73;21.37;;;5.90;99.90;;;;;;4410894;28;654712;-74
2021/12/16 15:10:16;;;;;;;46.97;22.83;;;5.90;99.90;;;;;;4426711;28;653266;-74
2021/12/16 15:13:10;;;;;;;46.97;21.77;;;5.80;99.90;;;;;;4431135;28;654690;-74
2021/12/16 15:42:44;;;;;;;48.20;22.07;;;5.80;99.90;;;;;;4386096;28;653389;-75
2021/12/16 15:44:09;;;;;;;38.30;19.73;;;5.80;99.90;;;;;;4393329;28;654219;-74
2021/12/16 15:46:57;;;;;;;41.30;20.10;;;5.80;99.90;;;;;;4398227;28;653247;-74
2021/12/16 15:49:44;;;;;;;37.37;19.37;;;5.90;99.90;;;;;;4415583;28;653327;-74
2021/12/16 15:52:39;;;;;;;36.23;19.00;;;5.90;99.90;;;;;;4397070;28;653369;-74
2021/12/16 15:55:31;;;;;;;38.07;19.07;;;5.80;99.90;;;;;;4394021;28;653129;-76
2021/12/16 15:58:20;;;;;;;39.90;18.77;;;5.90;99.90;;;;;;4393863;28;653100;-74
2021/12/16 16:01:09;;;;;;;33.73;17.20;;;5.90;99.90;;;;;;4387522;28;653858;-78
2021/12/16 16:03:57;;;;;;;39.53;18.57;;;5.90;99.90;;;;;;4398216;28;654144;-73
2021/12/16 16:06:47;;;;;;;36.53;18.43;;;5.90;99.90;;;;;;4415665;28;653318;-75
2021/12/16 16:09:37;;;;;;;38.57;18.90;;;5.90;99.90;;;;;;4409581;28;652955;-75
2021/12/16 16:12:29;;;;;;;30.03;15.13;;;5.90;99.90;;;;;;4394248;28;653646;-74
2021/12/16 16:15:18;;;;;;;29.40;15.23;;;5.90;99.90;;;;;;4396691;28;654969;-75
2021/12/16 16:18:14;;;;;;;26.77;13.63;;;5.90;99.90;;;;;;4396325;28;655162;-75
2021/12/16 16:21:06;;;;;;;28.30;15.73;;;5.90;99.90;;;;;;4396295;28;654405;-75
2021/12/16 16:23:54;;;;;;;24.20;12.30;;;5.90;99.90;;;;;;4391924;28;655292;-76
2021/12/16 16:26:42;;;;;;;22.97;12.23;;;5.80;99.90;;;;;;4391031;28;656215;-76
2021/12/16 16:29:32;;;;;;;21.87;10.63;;;5.90;99.90;;;;;;4406859;28;655022;-75
2021/12/16 16:32:20;;;;;;;24.37;13.07;;;5.90;99.90;;;;;;4387784;28;655181;-75
2021/12/16 16:35:14;;;;;;;21.67;12.07;;;5.90;99.90;;;;;;4391855;28;654740;-75
2021/12/16 16:38:09;;;;;;;19.27;10.83;;;5.90;99.90;;;;;;4373833;28;654802;-71
2021/12/16 16:40:58;;;;;;;22.80;11.60;;;5.90;99.90;;;;;;4362818;28;654606;-76
2021/12/16 16:43:49;;;;;;;17.58;8.30;;;5.90;99.90;;;;;;4399360;28;654310;-75
2021/12/16 16:46:42;;;;;;;13.18;7.93;;;5.80;99.90;;;;;;4394561;28;653730;-75
2021/12/16 16:49:31;;;;;;;14.83;7.17;;;5.80;99.90;;;;;;4394273;28;653672;-75
2021/12/16 16:52:21;;;;;;;14.77;8.20;;;5.80;99.90;;;;;;4380612;28;653290;-76
2021/12/16 16:55:10;;;;;;;13.13;7.43;;;5.80;99.90;;;;;;4394269;28;653799;-75
2021/12/16 16:57:59;;;;;;;14.77;7.17;;;5.80;99.90;;;;;;4401446;28;654094;-76
2021/12/16 17:00:50;;;;;;;13.03;6.57;;;5.80;99.90;;;;;;4385345;28;653616;-76